Time;durP1;ratioP1;P1;durP2;ratioP2;P2;SDS_P1;SDS_P2;PMS_P1;PMS_P2;Temp;Humidity;BMP_temperature;BMP_pressure;BME280_temperature;BME280_humidity;BME280_pressure;Samples;Min_cycle;Max_cycle;Signal;HPM_P1;HPM_P2
2021/08/07 00:00:49;;;;;;;2.43;2.33;;;;;;;;;;5012014;28;20876;-46
2021/08/07 00:03:15;;;;;;;2.47;2.30;;;;;;;;;;5012233;28;20820;-45
2021/08/07 00:05:41;;;;;;;2.30;2.10;;;;;;;;;;5012141;28;20389;-46
2021/08/07 00:08:07;;;;;;;2.17;2.03;;;;;;;;;;5011959;28;20431;-46
2021/08/07 00:10:33;;;;;;;2.70;2.50;;;;;;;;;;5011768;28;20774;-46
2021/08/07 00:13:00;;;;;;;2.67;2.47;;;;;;;;;;5011857;28;20456;-46
2021/08/07 00:15:26;;;;;;;3.20;2.33;;;;;;;;;;5012122;28;20427;-46
2021/08/07 00:17:52;;;;;;;3.00;2.80;;;;;;;;;;5011586;28;20464;-46
2021/08/07 00:20:18;;;;;;;3.47;2.30;;;;;;;;;;5012003;28;20441;-46
2021/08/07 00:22:44;;;;;;;2.50;2.30;;;;;;;;;;5011723;28;20796;-45
2021/08/07 00:25:11;;;;;;;3.90;2.67;;;;;;;;;;5011638;28;20405;-46
2021/08/07 00:27:37;;;;;;;2.50;2.30;;;;;;;;;;5011610;28;20483;-46
2021/08/07 00:30:04;;;;;;;2.70;2.50;;;;;;;;;;5011524;28;20391;-46
2021/08/07 00:32:29;;;;;;;2.30;2.20;;;;;;;;;;5011523;28;20978;-46
2021/08/07 00:34:55;;;;;;;2.73;2.23;;;;;;;;;;5011666;28;20488;-46
2021/08/07 00:37:21;;;;;;;2.97;2.30;;;;;;;;;;5011300;28;20788;-46
2021/08/07 00:39:47;;;;;;;3.10;2.87;;;;;;;;;;5011179;28;20778;-46
2021/08/07 00:42:13;;;;;;;2.70;2.40;;;;;;;;;;5011526;28;20901;-46
2021/08/07 00:44:39;;;;;;;2.47;2.27;;;;;;;;;;5011419;28;20515;-46
2021/08/07 00:47:05;;;;;;;2.77;2.57;;;;;;;;;;5011893;28;20868;-46
2021/08/07 00:49:31;;;;;;;4.43;2.50;;;;;;;;;;5011222;28;20448;-45
2021/08/07 00:51:57;;;;;;;2.30;2.20;;;;;;;;;;5011360;28;20395;-45
2021/08/07 00:54:23;;;;;;;3.10;2.30;;;;;;;;;;5011070;28;20955;-46
2021/08/07 00:56:49;;;;;;;3.53;2.13;;;;;;;;;;5011177;28;20425;-45
2021/08/07 00:59:15;;;;;;;3.20;2.50;;;;;;;;;;5011173;28;20380;-46
2021/08/07 01:01:53;;;;;;;6.47;2.87;;;;;;;;;;5009962;28;20374;-47
2021/08/07 01:04:32;;;;;;;2.40;2.30;;;;;;;;;;5010740;28;20432;-45
2021/08/07 01:06:58;;;;;;;3.97;2.80;;;;;;;;;;5010417;28;20451;-46
2021/08/07 01:09:42;;;;;;;3.00;2.30;;;;;;;;;;4993002;28;20908;-45
2021/08/07 01:12:17;;;;;;;2.37;2.27;;;;;;;;;;5011155;28;20397;-46
2021/08/07 01:14:43;;;;;;;3.20;2.33;;;;;;;;;;5010914;28;20508;-45
2021/08/07 01:17:13;;;;;;;3.33;2.20;;;;;;;;;;5010917;28;20410;-45
2021/08/07 01:20:06;;;;;;;2.43;2.33;;;;;;;;;;5010894;28;20380;-45
2021/08/07 01:22:35;;;;;;;4.50;2.30;;;;;;;;;;4974144;28;20412;-45
2021/08/07 01:25:03;;;;;;;3.53;2.33;;;;;;;;;;5011073;28;20409;-46
2021/08/07 01:27:30;;;;;;;3.40;2.50;;;;;;;;;;5010808;28;20516;-45
2021/08/07 01:29:57;;;;;;;3.63;2.27;;;;;;;;;;5010593;28;20398;-46
2021/08/07 01:32:24;;;;;;;3.27;2.73;;;;;;;;;;5010971;28;20399;-45
2021/08/07 01:34:50;;;;;;;2.40;2.30;;;;;;;;;;5010821;28;20397;-46
2021/08/07 01:37:18;;;;;;;2.30;2.20;;;;;;;;;;5010553;28;20587;-46
2021/08/07 01:39:44;;;;;;;5.17;2.43;;;;;;;;;;5010608;28;20405;-46
2021/08/07 01:42:10;;;;;;;2.37;2.17;;;;;;;;;;5010822;28;20509;-45
2021/08/07 01:44:36;;;;;;;2.30;2.10;;;;;;;;;;5010719;28;20523;-45
2021/08/07 01:47:06;;;;;;;2.40;2.20;;;;;;;;;;5010627;28;20398;-46
2021/08/07 01:49:50;;;;;;;4.43;2.30;;;;;;;;;;5010539;28;20409;-45
2021/08/07 01:52:24;;;;;;;3.47;2.90;;;;;;;;;;5010803;28;20881;-46
2021/08/07 01:54:53;;;;;;;3.43;2.60;;;;;;;;;;5010574;28;20890;-46
2021/08/07 01:57:20;;;;;;;2.77;2.57;;;;;;;;;;5010492;28;20428;-45
2021/08/07 01:59:47;;;;;;;2.93;2.73;;;;;;;;;;5010461;28;20404;-46
2021/08/07 02:02:14;;;;;;;3.03;2.70;;;;;;;;;;5010579;28;20459;-46
2021/08/07 02:04:40;;;;;;;5.13;3.30;;;;;;;;;;5010483;28;20414;-46
2021/08/07 02:07:07;;;;;;;2.50;2.30;;;;;;;;;;5010811;28;20425;-45
2021/08/07 02:09:33;;;;;;;5.07;2.67;;;;;;;;;;5010252;28;20734;-45
2021/08/07 02:12:00;;;;;;;3.30;3.00;;;;;;;;;;5009500;28;20411;-45
2021/08/07 02:14:27;;;;;;;2.77;2.57;;;;;;;;;;5012029;28;20456;-45
2021/08/07 02:16:54;;;;;;;3.93;2.60;;;;;;;;;;5014247;28;20571;-46
2021/08/07 02:19:20;;;;;;;9.87;2.67;;;;;;;;;;5014014;28;20878;-46
2021/08/07 02:21:46;;;;;;;3.07;2.87;;;;;;;;;;5013861;28;20898;-45
2021/08/07 02:24:13;;;;;;;4.13;2.50;;;;;;;;;;5013950;28;20451;-46
2021/08/07 02:26:39;;;;;;;5.10;2.57;;;;;;;;;;5013860;28;20902;-46
2021/08/07 02:29:06;;;;;;;3.27;2.83;;;;;;;;;;5014187;28;20489;-46
2021/08/07 02:31:33;;;;;;;4.37;2.50;;;;;;;;;;5013714;28;20384;-45
2021/08/07 02:33:58;;;;;;;2.53;2.33;;;;;;;;;;5013796;28;20535;-46
2021/08/07 02:36:25;;;;;;;2.63;2.40;;;;;;;;;;5013678;28;20425;-46
2021/08/07 02:38:51;;;;;;;2.93;2.47;;;;;;;;;;5014042;28;20961;-45
2021/08/07 02:41:18;;;;;;;2.40;2.23;;;;;;;;;;5013734;28;20401;-45
2021/08/07 02:43:45;;;;;;;3.17;2.87;;;;;;;;;;5013685;28;20891;-46
2021/08/07 02:46:11;;;;;;;2.70;2.60;;;;;;;;;;5013556;28;20383;-45
2021/08/07 02:48:38;;;;;;;3.73;2.47;;;;;;;;;;5013600;28;20885;-46
2021/08/07 02:51:04;;;;;;;2.83;2.50;;;;;;;;;;5013304;28;20497;-46
2021/08/07 02:53:32;;;;;;;3.03;2.83;;;;;;;;;;5013551;28;20438;-46
2021/08/07 02:55:58;;;;;;;3.20;2.37;;;;;;;;;;5013587;28;20409;-45
2021/08/07 02:58:24;;;;;;;3.80;2.63;;;;;;;;;;5013653;28;20420;-45
2021/08/07 03:00:51;;;;;;;2.90;2.53;;;;;;;;;;5013290;28;20382;-46
2021/08/07 03:03:17;;;;;;;2.83;2.63;;;;;;;;;;5013498;28;20386;-46
2021/08/07 03:05:43;;;;;;;2.97;2.73;;;;;;;;;;5013213;28;20411;-46
2021/08/07 03:08:08;;;;;;;2.60;2.40;;;;;;;;;;5013260;28;20837;-45
2021/08/07 03:10:35;;;;;;;3.30;2.90;;;;;;;;;;5013079;28;20411;-46
2021/08/07 03:13:02;;;;;;;2.80;2.60;;;;;;;;;;5013042;28;20437;-45
2021/08/07 03:15:29;;;;;;;2.10;2.00;;;;;;;;;;5013072;28;20383;-46
2021/08/07 03:17:55;;;;;;;5.83;2.93;;;;;;;;;;5012980;28;20474;-45
2021/08/07 03:20:30;;;;;;;3.30;3.07;;;;;;;;;;5012807;28;20390;-45
2021/08/07 03:22:56;;;;;;;4.80;2.20;;;;;;;;;;5013262;28;20378;-46
2021/08/07 03:25:22;;;;;;;4.60;2.53;;;;;;;;;;5012457;28;20992;-46
2021/08/07 03:27:48;;;;;;;2.77;2.53;;;;;;;;;;5012729;28;20542;-46
2021/08/07 03:30:14;;;;;;;5.43;2.83;;;;;;;;;;5012583;28;20779;-45
2021/08/07 03:32:40;;;;;;;3.53;2.83;;;;;;;;;;5012564;28;20820;-46
2021/08/07 03:35:06;;;;;;;3.17;2.87;;;;;;;;;;5012645;28;20433;-45
2021/08/07 03:37:32;;;;;;;3.10;2.20;;;;;;;;;;5012458;28;20439;-45
2021/08/07 03:39:58;;;;;;;3.23;2.50;;;;;;;;;;5012547;28;20775;-46
2021/08/07 03:42:24;;;;;;;3.53;2.57;;;;;;;;;;5012942;28;20449;-46
2021/08/07 03:44:50;;;;;;;3.27;2.10;;;;;;;;;;5012463;28;20404;-45
2021/08/07 03:47:16;;;;;;;2.80;2.40;;;;;;;;;;5012363;28;20407;-45
2021/08/07 03:49:43;;;;;;;4.93;2.80;;;;;;;;;;5012426;28;20403;-46
2021/08/07 03:52:09;;;;;;;2.60;2.40;;;;;;;;;;5012411;28;20867;-46
2021/08/07 03:54:35;;;;;;;6.07;3.47;;;;;;;;;;5012363;28;20469;-46
2021/08/07 03:57:01;;;;;;;3.83;2.63;;;;;;;;;;5012081;28;20402;-45
2021/08/07 03:59:27;;;;;;;2.63;2.43;;;;;;;;;;5012360;28;20917;-45
2021/08/07 04:01:53;;;;;;;4.50;2.90;;;;;;;;;;5011846;28;20387;-46
2021/08/07 04:04:19;;;;;;;4.20;2.57;;;;;;;;;;5012204;28;20410;-46
2021/08/07 04:06:46;;;;;;;2.40;2.30;;;;;;;;;;5011957;28;20378;-45
2021/08/07 04:09:13;;;;;;;2.90;2.70;;;;;;;;;;5012145;28;20479;-45
2021/08/07 04:11:39;;;;;;;5.93;2.50;;;;;;;;;;5011649;28;20785;-45
2021/08/07 04:14:05;;;;;;;2.33;2.17;;;;;;;;;;5011927;28;20456;-45
2021/08/07 04:16:32;;;;;;;4.90;2.50;;;;;;;;;;5011638;28;20406;-45
2021/08/07 04:18:58;;;;;;;2.63;2.43;;;;;;;;;;5011923;28;20449;-45
2021/08/07 04:21:24;;;;;;;3.33;2.33;;;;;;;;;;5011634;28;20839;-45
2021/08/07 04:23:50;;;;;;;5.23;2.33;;;;;;;;;;5012130;28;20410;-47
2021/08/07 04:26:16;;;;;;;3.00;2.43;;;;;;;;;;5011625;28;20391;-45
2021/08/07 04:28:41;;;;;;;2.60;2.37;;;;;;;;;;5011776;28;20638;-45
2021/08/07 04:31:07;;;;;;;2.50;2.30;;;;;;;;;;5011377;28;20872;-45
2021/08/07 04:33:33;;;;;;;2.37;2.27;;;;;;;;;;5012033;28;20435;-45
2021/08/07 04:36:03;;;;;;;3.97;2.30;;;;;;;;;;5011278;28;20405;-45
2021/08/07 04:38:29;;;;;;;2.80;2.60;;;;;;;;;;5011156;28;20451;-46
2021/08/07 04:40:55;;;;;;;2.70;2.47;;;;;;;;;;5011259;28;20415;-46
2021/08/07 04:43:21;;;;;;;2.47;2.27;;;;;;;;;;5011519;28;20415;-46
2021/08/07 04:45:47;;;;;;;5.77;3.10;;;;;;;;;;5011339;28;20446;-47
2021/08/07 04:48:13;;;;;;;5.53;2.20;;;;;;;;;;5011517;28;20478;-47
2021/08/07 04:50:39;;;;;;;3.00;2.30;;;;;;;;;;5011140;28;20813;-46
2021/08/07 04:53:06;;;;;;;2.80;2.60;;;;;;;;;;5011347;28;20467;-45
2021/08/07 04:55:32;;;;;;;2.27;2.17;;;;;;;;;;5011343;28;20414;-46
2021/08/07 04:57:58;;;;;;;3.20;2.10;;;;;;;;;;5011282;28;20407;-46
2021/08/07 05:00:24;;;;;;;4.13;2.37;;;;;;;;;;5011066;28;20401;-46
2021/08/07 05:02:50;;;;;;;2.90;2.70;;;;;;;;;;5011320;28;20383;-45
2021/08/07 05:05:16;;;;;;;3.37;3.17;;;;;;;;;;5011372;28;20388;-46
2021/08/07 05:07:43;;;;;;;5.63;2.80;;;;;;;;;;5011106;28;20446;-45
2021/08/07 05:10:09;;;;;;;2.30;2.10;;;;;;;;;;5011072;28;20382;-46
2021/08/07 05:12:36;;;;;;;4.60;3.10;;;;;;;;;;5010975;28;20903;-45
2021/08/07 05:15:02;;;;;;;3.60;2.23;;;;;;;;;;5011093;28;20387;-46
2021/08/07 05:17:28;;;;;;;3.03;2.33;;;;;;;;;;5011026;28;20428;-46
2021/08/07 05:19:54;;;;;;;2.93;2.10;;;;;;;;;;5010866;28;20374;-46
2021/08/07 05:22:20;;;;;;;5.70;1.90;;;;;;;;;;5011274;28;20405;-45
2021/08/07 05:24:47;;;;;;;3.80;2.17;;;;;;;;;;5010995;28;20499;-46
2021/08/07 05:27:13;;;;;;;2.50;2.30;;;;;;;;;;5010700;28;20398;-46
2021/08/07 05:29:39;;;;;;;4.57;1.80;;;;;;;;;;5010746;28;20403;-45
2021/08/07 05:32:05;;;;;;;2.03;1.77;;;;;;;;;;5010824;28;20453;-46
2021/08/07 05:34:31;;;;;;;3.67;2.40;;;;;;;;;;5010778;28;20473;-46
2021/08/07 05:36:57;;;;;;;2.03;1.93;;;;;;;;;;5010525;28;20469;-45
2021/08/07 05:39:23;;;;;;;2.90;1.97;;;;;;;;;;5010841;28;20411;-45
2021/08/07 05:41:49;;;;;;;3.57;2.20;;;;;;;;;;5010488;28;20404;-46
2021/08/07 05:44:15;;;;;;;4.90;2.40;;;;;;;;;;5010735;28;20499;-46
2021/08/07 05:46:41;;;;;;;2.80;2.20;;;;;;;;;;5010536;28;20514;-46
2021/08/07 05:49:07;;;;;;;3.23;1.97;;;;;;;;;;5013534;28;20922;-46
2021/08/07 05:51:35;;;;;;;3.00;1.90;;;;;;;;;;5014392;28;20984;-45
2021/08/07 05:54:01;;;;;;;2.80;2.00;;;;;;;;;;5014599;28;20479;-46
2021/08/07 05:56:27;;;;;;;2.23;1.57;;;;;;;;;;5014365;28;20408;-45
2021/08/07 05:58:53;;;;;;;2.00;1.90;;;;;;;;;;5014724;28;20482;-46
2021/08/07 06:01:19;;;;;;;4.07;1.90;;;;;;;;;;5014218;28;20395;-46
2021/08/07 06:03:45;;;;;;;2.23;2.03;;;;;;;;;;5014478;28;20432;-46
2021/08/07 06:06:11;;;;;;;5.13;2.00;;;;;;;;;;5014352;28;20371;-45
2021/08/07 06:08:37;;;;;;;2.10;1.77;;;;;;;;;;5014206;28;20430;-45
2021/08/07 06:11:03;;;;;;;4.90;2.17;;;;;;;;;;5014593;28;20488;-46
2021/08/07 06:13:29;;;;;;;2.70;1.70;;;;;;;;;;5014166;28;20462;-46
2021/08/07 06:15:55;;;;;;;28.90;2.33;;;;;;;;;;5014191;28;20380;-46
2021/08/07 06:18:21;;;;;;;28.50;2.37;;;;;;;;;;5014077;28;20432;-47
2021/08/07 06:20:47;;;;;;;30.60;2.17;;;;;;;;;;5013960;28;20858;-46
2021/08/07 06:23:13;;;;;;;3.50;2.27;;;;;;;;;;5014022;28;20403;-46
2021/08/07 06:25:39;;;;;;;47.30;2.73;;;;;;;;;;5013958;28;20460;-46
2021/08/07 06:28:06;;;;;;;8.97;2.60;;;;;;;;;;5013827;28;20426;-46
2021/08/07 06:30:32;;;;;;;8.20;2.10;;;;;;;;;;5013874;28;20415;-46
2021/08/07 06:32:58;;;;;;;8.40;4.90;;;;;;;;;;5013868;28;20819;-46
2021/08/07 06:35:24;;;;;;;2.40;2.20;;;;;;;;;;5014272;28;20370;-45
2021/08/07 06:37:51;;;;;;;4.27;2.13;;;;;;;;;;5013492;28;20448;-46
2021/08/07 06:40:18;;;;;;;4.17;2.10;;;;;;;;;;5013620;28;20409;-45
2021/08/07 06:42:44;;;;;;;2.30;2.10;;;;;;;;;;5013689;28;20775;-46
2021/08/07 06:45:10;;;;;;;7.63;3.17;;;;;;;;;;5013791;28;20411;-46
2021/08/07 06:47:36;;;;;;;2.53;2.00;;;;;;;;;;5014229;28;20425;-46
2021/08/07 06:50:03;;;;;;;2.30;2.10;;;;;;;;;;5013419;28;20492;-45
2021/08/07 06:52:29;;;;;;;2.37;2.13;;;;;;;;;;5013465;28;20903;-45
2021/08/07 06:54:55;;;;;;;2.33;2.00;;;;;;;;;;5013532;28;20482;-45
2021/08/07 06:57:21;;;;;;;4.23;1.80;;;;;;;;;;5013458;28;20450;-45
2021/08/07 06:59:47;;;;;;;2.73;2.00;;;;;;;;;;5012536;28;20403;-44
2021/08/07 07:02:13;;;;;;;3.20;1.90;;;;;;;;;;5013503;28;20406;-45
2021/08/07 07:04:39;;;;;;;11.40;1.90;;;;;;;;;;5013498;28;20415;-44
2021/08/07 07:07:05;;;;;;;3.93;1.60;;;;;;;;;;5013159;28;20841;-45
2021/08/07 07:09:31;;;;;;;3.00;1.87;;;;;;;;;;5013491;28;20445;-45
2021/08/07 07:11:58;;;;;;;7.43;1.80;;;;;;;;;;5013230;28;20389;-46
2021/08/07 07:14:24;;;;;;;3.30;2.00;;;;;;;;;;5013091;28;20545;-45
2021/08/07 07:16:50;;;;;;;3.40;2.30;;;;;;;;;;5013225;28;20933;-45
2021/08/07 07:19:16;;;;;;;2.43;1.90;;;;;;;;;;5013420;28;20436;-45
2021/08/07 07:21:42;;;;;;;5.77;2.33;;;;;;;;;;5012798;28;20465;-46
2021/08/07 07:24:09;;;;;;;1.60;1.50;;;;;;;;;;5012966;28;21046;-45
2021/08/07 07:26:34;;;;;;;4.70;2.10;;;;;;;;;;5012942;28;20481;-45
2021/08/07 07:29:01;;;;;;;3.93;2.03;;;;;;;;;;5012855;28;20824;-45
2021/08/07 07:31:27;;;;;;;2.20;2.00;;;;;;;;;;5012825;28;20428;-45
2021/08/07 07:33:53;;;;;;;2.47;2.27;;;;;;;;;;5012776;28;20486;-45
2021/08/07 07:36:19;;;;;;;2.60;2.17;;;;;;;;;;5012780;28;20403;-45
2021/08/07 07:38:45;;;;;;;2.50;2.30;;;;;;;;;;5012412;28;20447;-47
2021/08/07 07:41:12;;;;;;;3.53;2.20;;;;;;;;;;5012160;28;20775;-45
2021/08/07 07:43:38;;;;;;;2.30;2.10;;;;;;;;;;5012061;28;20485;-45
2021/08/07 07:46:05;;;;;;;3.97;2.10;;;;;;;;;;5012132;28;20407;-45
2021/08/07 07:48:31;;;;;;;4.40;2.70;;;;;;;;;;5012181;28;20429;-45
2021/08/07 07:50:57;;;;;;;4.77;2.20;;;;;;;;;;5012367;28;20410;-46
2021/08/07 07:53:23;;;;;;;4.40;2.57;;;;;;;;;;5012429;28;20458;-45
2021/08/07 07:55:49;;;;;;;5.87;2.37;;;;;;;;;;5012279;28;20830;-46
2021/08/07 07:58:15;;;;;;;7.47;2.33;;;;;;;;;;5011972;28;20417;-47
2021/08/07 08:00:41;;;;;;;3.70;2.30;;;;;;;;;;5012114;28;20481;-44
2021/08/07 08:03:07;;;;;;;3.90;2.40;;;;;;;;;;5012088;28;20418;-46
2021/08/07 08:05:34;;;;;;;4.93;2.57;;;;;;;;;;5012107;28;20404;-47
2021/08/07 08:08:00;;;;;;;7.17;2.30;;;;;;;;;;5011959;28;20986;-45
2021/08/07 08:10:27;;;;;;;2.37;1.83;;;;;;;;;;5012004;28;20816;-46
2021/08/07 08:12:53;;;;;;;3.60;1.97;;;;;;;;;;5011930;28;20906;-45
2021/08/07 08:15:19;;;;;;;3.03;1.90;;;;;;;;;;5011990;28;20881;-45
2021/08/07 08:17:45;;;;;;;5.50;3.00;;;;;;;;;;5011820;28;20423;-45
2021/08/07 08:20:11;;;;;;;4.80;2.20;;;;;;;;;;5012153;28;20401;-45
2021/08/07 08:22:38;;;;;;;2.60;1.80;;;;;;;;;;5012058;28;21000;-45
2021/08/07 08:25:06;;;;;;;4.33;2.07;;;;;;;;;;5011782;28;20404;-47
2021/08/07 08:27:32;;;;;;;1.93;1.70;;;;;;;;;;5011782;28;20426;-47
2021/08/07 08:29:58;;;;;;;3.27;2.07;;;;;;;;;;5011610;28;20511;-46
2021/08/07 08:32:24;;;;;;;2.80;1.80;;;;;;;;;;5011741;28;20487;-47
2021/08/07 08:34:50;;;;;;;2.80;1.83;;;;;;;;;;5011449;28;20822;-46
2021/08/07 08:37:16;;;;;;;8.00;1.90;;;;;;;;;;5011464;28;20821;-47
2021/08/07 08:39:42;;;;;;;3.83;2.03;;;;;;;;;;5011552;28;20970;-46
2021/08/07 08:42:08;;;;;;;5.03;2.10;;;;;;;;;;5011699;28;20469;-45
2021/08/07 08:44:35;;;;;;;3.83;1.70;;;;;;;;;;5011612;28;20410;-45
2021/08/07 08:47:01;;;;;;;8.73;2.27;;;;;;;;;;5011466;28;20514;-45
2021/08/07 08:49:29;;;;;;;4.13;2.40;;;;;;;;;;5011358;28;20554;-46
2021/08/07 08:51:56;;;;;;;3.07;2.20;;;;;;;;;;5011753;28;20414;-45
2021/08/07 08:54:22;;;;;;;3.70;2.33;;;;;;;;;;5011524;28;20605;-46
2021/08/07 08:56:48;;;;;;;2.30;2.10;;;;;;;;;;5011617;28;20837;-46
2021/08/07 08:59:14;;;;;;;6.37;1.80;;;;;;;;;;5011641;28;20422;-46
2021/08/07 09:01:41;;;;;;;3.40;2.30;;;;;;;;;;5011580;28;20408;-46
2021/08/07 09:04:07;;;;;;;5.60;2.13;;;;;;;;;;5011312;28;20844;-46
2021/08/07 09:06:34;;;;;;;2.20;1.87;;;;;;;;;;5011145;28;20975;-46
2021/08/07 09:09:01;;;;;;;6.30;2.80;;;;;;;;;;5011393;28;20460;-48
2021/08/07 09:11:28;;;;;;;3.30;2.50;;;;;;;;;;5011424;28;20411;-47
2021/08/07 09:14:13;;;;;;;3.33;2.23;;;;;;;;;;5011130;28;20454;-46
2021/08/07 09:16:39;;;;;;;4.60;1.80;;;;;;;;;;5011434;28;20487;-46
2021/08/07 09:19:05;;;;;;;6.30;2.17;;;;;;;;;;5010927;28;20783;-45
2021/08/07 09:21:31;;;;;;;3.90;2.10;;;;;;;;;;5026654;28;20402;-45
2021/08/07 09:24:07;;;;;;;4.00;1.67;;;;;;;;;;5010600;28;20403;-45
2021/08/07 09:26:33;;;;;;;5.70;2.70;;;;;;;;;;5010748;28;20822;-45
2021/08/07 09:28:59;;;;;;;6.50;2.07;;;;;;;;;;5010946;28;20406;-45
2021/08/07 09:31:26;;;;;;;2.20;1.50;;;;;;;;;;5010791;28;20411;-46
2021/08/07 09:34:10;;;;;;;3.57;1.63;;;;;;;;;;5011137;28;20540;-45
2021/08/07 09:36:46;;;;;;;1.90;1.57;;;;;;;;;;5010465;28;20406;-46
2021/08/07 09:39:13;;;;;;;4.00;1.60;;;;;;;;;;5010851;28;20476;-47
2021/08/07 09:41:58;;;;;;;5.33;2.77;;;;;;;;;;5010802;28;20773;-47
2021/08/07 09:44:24;;;;;;;2.63;2.10;;;;;;;;;;5010802;28;20457;-46
2021/08/07 09:46:50;;;;;;;2.70;1.57;;;;;;;;;;5010896;28;20427;-46
2021/08/07 09:49:16;;;;;;;2.90;1.67;;;;;;;;;;5010705;28;20959;-47
2021/08/07 09:51:42;;;;;;;2.23;1.77;;;;;;;;;;5010535;28;20430;-47
2021/08/07 09:54:16;;;;;;;2.37;1.57;;;;;;;;;;5010602;28;20873;-47
2021/08/07 09:56:42;;;;;;;8.43;3.37;;;;;;;;;;5010825;28;20395;-45
2021/08/07 09:59:10;;;;;;;4.13;1.90;;;;;;;;;;5010768;28;20412;-45
2021/08/07 10:01:36;;;;;;;3.00;2.30;;;;;;;;;;5010357;28;20430;-45
2021/08/07 10:04:12;;;;;;;1.77;1.50;;;;;;;;;;5010673;28;21072;-45
2021/08/07 10:06:39;;;;;;;4.43;2.00;;;;;;;;;;5010592;28;20390;-47
2021/08/07 10:09:06;;;;;;;2.90;1.70;;;;;;;;;;5010640;28;20414;-46
2021/08/07 10:11:32;;;;;;;2.17;1.60;;;;;;;;;;5010509;28;20460;-45
2021/08/07 10:13:58;;;;;;;2.57;1.90;;;;;;;;;;5010435;28;20454;-44
2021/08/07 10:16:25;;;;;;;2.80;1.67;;;;;;;;;;5010500;28;20414;-45
2021/08/07 10:18:52;;;;;;;2.90;2.00;;;;;;;;;;5010138;28;20435;-45
2021/08/07 10:21:18;;;;;;;10.93;2.50;;;;;;;;;;5010594;28;20801;-45
2021/08/07 10:23:44;;;;;;;8.03;2.50;;;;;;;;;;5010322;28;20783;-45
2021/08/07 10:26:14;;;;;;;3.40;3.10;;;;;;;;;;5008984;28;20415;-44
2021/08/07 10:28:45;;;;;;;3.63;3.33;;;;;;;;;;5010500;28;20441;-45
2021/08/07 10:31:14;;;;;;;6.60;3.60;;;;;;;;;;5010223;28;20415;-45
2021/08/07 10:33:44;;;;;;;6.33;3.40;;;;;;;;;;5010013;28;20455;-44
2021/08/07 10:36:15;;;;;;;5.57;3.60;;;;;;;;;;5012999;28;20395;-44
2021/08/07 10:38:42;;;;;;;3.63;3.30;;;;;;;;;;5013925;28;20441;-48
2021/08/07 10:41:08;;;;;;;10.33;4.03;;;;;;;;;;5014023;28;20766;-45
2021/08/07 10:43:36;;;;;;;5.03;2.90;;;;;;;;;;5014239;28;20437;-45
2021/08/07 10:46:04;;;;;;;3.30;2.60;;;;;;;;;;5013709;28;20422;-45
2021/08/07 10:48:43;;;;;;;7.93;2.60;;;;;;;;;;5013568;28;20914;-47
2021/08/07 10:51:24;;;;;;;7.77;2.13;;;;;;;;;;5013681;28;20407;-45
2021/08/07 10:53:54;;;;;;;3.90;2.20;;;;;;;;;;5013415;28;20481;-46
2021/08/07 10:56:33;;;;;;;5.10;2.00;;;;;;;;;;5013340;28;20786;-48
2021/08/07 10:59:00;;;;;;;3.97;2.10;;;;;;;;;;5013139;28;20399;-47
2021/08/07 11:01:27;;;;;;;5.43;2.07;;;;;;;;;;5013207;28;20391;-45
2021/08/07 11:04:03;;;;;;;3.30;1.83;;;;;;;;;;5013388;28;20430;-46
2021/08/07 11:06:38;;;;;;;8.17;2.13;;;;;;;;;;5013320;28;20426;-49
2021/08/07 11:09:16;;;;;;;1.83;1.60;;;;;;;;;;5013068;28;20494;-45
2021/08/07 11:11:42;;;;;;;5.17;1.60;;;;;;;;;;5013384;28;20411;-46
2021/08/07 11:14:24;;;;;;;4.63;1.80;;;;;;;;;;5013140;28;20870;-47
2021/08/07 11:17:05;;;;;;;6.20;2.07;;;;;;;;;;5012991;28;20449;-46
2021/08/07 11:19:45;;;;;;;6.20;2.00;;;;;;;;;;5012866;28;20923;-45
2021/08/07 11:22:11;;;;;;;4.70;1.60;;;;;;;;;;5012980;28;20482;-46
2021/08/07 11:24:49;;;;;;;2.43;1.60;;;;;;;;;;5012953;28;20403;-46
2021/08/07 11:27:16;;;;;;;3.57;1.37;;;;;;;;;;5012709;28;20427;-45
2021/08/07 11:30:00;;;;;;;3.77;1.77;;;;;;;;;;5012615;28;20415;-46
2021/08/07 11:32:26;;;;;;;4.43;1.90;;;;;;;;;;5012617;28;20406;-44
2021/08/07 11:34:52;;;;;;;7.30;1.60;;;;;;;;;;5012663;28;20458;-46
2021/08/07 11:37:20;;;;;;;5.57;2.20;;;;;;;;;;5012501;28;20439;-45
2021/08/07 11:40:04;;;;;;;3.43;1.90;;;;;;;;;;5013014;28;20879;-44
2021/08/07 11:42:38;;;;;;;3.77;1.60;;;;;;;;;;5012719;28;20403;-45
2021/08/07 11:45:04;;;;;;;3.10;1.80;;;;;;;;;;5012623;28;20412;-45
2021/08/07 11:47:31;;;;;;;3.33;1.67;;;;;;;;;;5011734;28;20513;-44
2021/08/07 11:49:58;;;;;;;3.10;1.63;;;;;;;;;;5012458;28;20412;-45
2021/08/07 11:52:30;;;;;;;1.90;1.80;;;;;;;;;;5012456;28;20410;-45
2021/08/07 11:54:56;;;;;;;2.07;1.50;;;;;;;;;;5012422;28;20447;-45
2021/08/07 11:57:26;;;;;;;2.97;1.57;;;;;;;;;;5012354;28;20414;-45
2021/08/07 11:59:52;;;;;;;2.10;1.63;;;;;;;;;;5012387;28;20426;-45
2021/08/07 12:02:18;;;;;;;7.80;1.90;;;;;;;;;;5012270;28;20408;-46
2021/08/07 12:04:44;;;;;;;2.07;1.80;;;;;;;;;;5012370;28;21026;-45
2021/08/07 12:07:11;;;;;;;7.10;2.07;;;;;;;;;;5012170;28;20419;-45
2021/08/07 12:09:37;;;;;;;8.00;1.90;;;;;;;;;;5012402;28;20412;-45
2021/08/07 12:12:03;;;;;;;2.60;1.80;;;;;;;;;;5011124;28;20418;-45
2021/08/07 12:14:29;;;;;;;3.07;1.40;;;;;;;;;;5012003;28;20480;-45
2021/08/07 12:16:55;;;;;;;2.37;1.90;;;;;;;;;;5011945;28;20492;-45
2021/08/07 12:19:22;;;;;;;2.70;2.40;;;;;;;;;;5012010;28;20890;-45
2021/08/07 12:21:48;;;;;;;3.20;2.10;;;;;;;;;;5012172;28;20578;-46
2021/08/07 12:24:23;;;;;;;3.37;1.93;;;;;;;;;;5012055;28;20409;-46
2021/08/07 12:26:50;;;;;;;8.03;2.77;;;;;;;;;;5012421;28;20414;-45
2021/08/07 12:29:18;;;;;;;2.80;1.90;;;;;;;;;;5012011;28;20410;-45
2021/08/07 12:31:45;;;;;;;6.77;2.20;;;;;;;;;;5011701;28;20409;-45
2021/08/07 12:34:12;;;;;;;3.10;1.90;;;;;;;;;;5011528;28;20477;-44
2021/08/07 12:36:38;;;;;;;1.93;1.63;;;;;;;;;;5011403;28;20394;-45
2021/08/07 12:39:04;;;;;;;2.10;1.70;;;;;;;;;;5011851;28;20384;-45
2021/08/07 12:41:30;;;;;;;3.10;1.90;;;;;;;;;;5011482;28;20414;-45
2021/08/07 12:43:56;;;;;;;1.90;1.40;;;;;;;;;;5011623;28;20412;-45
2021/08/07 12:46:22;;;;;;;4.37;1.50;;;;;;;;;;5011371;28;20410;-46
2021/08/07 12:48:50;;;;;;;3.83;1.50;;;;;;;;;;5011987;28;20427;-46
2021/08/07 12:51:29;;;;;;;1.50;1.27;;;;;;;;;;5010996;28;20848;-46
2021/08/07 12:53:56;;;;;;;1.30;1.00;;;;;;;;;;5011264;28;20848;-46
2021/08/07 12:56:23;;;;;;;1.10;1.00;;;;;;;;;;5011281;28;20426;-46
2021/08/07 12:59:03;;;;;;;0.90;0.90;;;;;;;;;;5010507;28;20442;-47
2021/08/07 13:01:29;;;;;;;1.60;1.20;;;;;;;;;;5010814;28;20413;-46
2021/08/07 13:03:58;;;;;;;2.90;1.07;;;;;;;;;;5011193;28;20414;-47
2021/08/07 13:06:24;;;;;;;1.47;0.90;;;;;;;;;;5011007;28;20410;-46
2021/08/07 13:08:50;;;;;;;1.93;1.23;;;;;;;;;;5011072;28;20454;-47
2021/08/07 13:11:18;;;;;;;1.10;0.93;;;;;;;;;;5010804;28;20403;-47
2021/08/07 13:13:51;;;;;;;1.90;1.27;;;;;;;;;;5010934;28;20487;-46
2021/08/07 13:16:36;;;;;;;1.70;1.20;;;;;;;;;;5011021;28;20413;-47
2021/08/07 13:19:12;;;;;;;1.97;1.10;;;;;;;;;;5011228;28;20795;-46
2021/08/07 13:21:38;;;;;;;1.30;1.20;;;;;;;;;;5010690;28;20403;-46
2021/08/07 13:24:04;;;;;;;1.10;1.00;;;;;;;;;;5011348;28;20465;-47
2021/08/07 13:26:30;;;;;;;4.30;2.43;;;;;;;;;;5010574;28;20430;-46
2021/08/07 13:28:56;;;;;;;1.10;1.00;;;;;;;;;;5010772;28;20441;-47
2021/08/07 13:31:31;;;;;;;3.33;1.00;;;;;;;;;;5010855;28;20418;-47
2021/08/07 13:33:57;;;;;;;2.20;1.20;;;;;;;;;;5010686;28;20913;-46
2021/08/07 13:36:23;;;;;;;2.50;1.30;;;;;;;;;;5010805;28;20974;-46
2021/08/07 13:38:49;;;;;;;2.40;2.27;;;;;;;;;;5010357;28;20541;-46
2021/08/07 13:41:15;;;;;;;2.47;1.10;;;;;;;;;;5010704;28;20400;-46
2021/08/07 13:43:41;;;;;;;2.13;1.63;;;;;;;;;;5010655;28;20407;-46
2021/08/07 13:46:07;;;;;;;2.17;1.40;;;;;;;;;;5010738;28;20403;-46
2021/08/07 13:48:33;;;;;;;2.50;1.50;;;;;;;;;;5010692;28;20419;-46
2021/08/07 13:50:59;;;;;;;1.70;1.43;;;;;;;;;;5010640;28;20413;-46
2021/08/07 13:53:25;;;;;;;1.40;1.20;;;;;;;;;;5011099;28;20455;-46
2021/08/07 13:55:51;;;;;;;2.87;1.37;;;;;;;;;;5010934;28;20407;-46
2021/08/07 13:58:17;;;;;;;2.83;1.47;;;;;;;;;;5009174;28;20802;-46
2021/08/07 14:00:43;;;;;;;2.20;1.67;;;;;;;;;;5010881;28;20411;-46
2021/08/07 14:03:09;;;;;;;1.70;1.33;;;;;;;;;;5010670;28;20883;-47
2021/08/07 14:05:35;;;;;;;2.80;1.10;;;;;;;;;;5010814;28;20414;-46
2021/08/07 14:08:01;;;;;;;1.73;1.20;;;;;;;;;;5010475;28;20644;-46
2021/08/07 14:10:27;;;;;;;2.40;1.33;;;;;;;;;;5013507;28;20442;-46
2021/08/07 14:12:53;;;;;;;1.77;1.27;;;;;;;;;;5014271;28;20406;-46
2021/08/07 14:15:19;;;;;;;3.20;3.00;;;;;;;;;;5014361;28;20414;-46
2021/08/07 14:17:45;;;;;;;1.50;1.40;;;;;;;;;;5014176;28;20425;-46
2021/08/07 14:20:11;;;;;;;3.70;1.50;;;;;;;;;;5014033;28;20438;-47
2021/08/07 14:22:39;;;;;;;1.50;1.20;;;;;;;;;;5014158;28;20402;-46
2021/08/07 14:25:05;;;;;;;1.43;1.23;;;;;;;;;;5014080;28;20558;-46
2021/08/07 14:27:31;;;;;;;2.90;1.80;;;;;;;;;;5013874;28;20453;-46
2021/08/07 14:29:57;;;;;;;6.63;1.70;;;;;;;;;;5013748;28;20419;-46
2021/08/07 14:32:23;;;;;;;1.60;1.50;;;;;;;;;;5014337;28;20498;-46
2021/08/07 14:34:49;;;;;;;2.03;1.10;;;;;;;;;;5013823;28;20469;-47
2021/08/07 14:37:15;;;;;;;2.70;1.23;;;;;;;;;;5013543;28;20954;-46
2021/08/07 14:39:42;;;;;;;3.63;1.60;;;;;;;;;;5013602;28;20399;-46
2021/08/07 14:42:08;;;;;;;2.10;1.43;;;;;;;;;;5013868;28;20475;-47
2021/08/07 14:44:34;;;;;;;6.93;1.53;;;;;;;;;;5013785;28;20502;-46